createdAt,value
2017-12-14T00:00:23.538Z,79.23
2017-12-14T00:02:52.538Z,75.30
2017-12-14T00:05:21.118Z,76.93
2017-12-14T00:07:49.910Z,80.50
2017-12-14T00:10:19.007Z,72.03
2017-12-14T00:12:47.689Z,81.23
2017-12-14T00:15:16.489Z,96.90
2017-12-14T00:17:45.169Z,106.83
2017-12-14T00:20:13.807Z,102.87
2017-12-14T00:22:43.143Z,82.63
2017-12-14T00:25:11.325Z,78.80
2017-12-14T00:27:39.986Z,89.77
2017-12-14T00:30:08.696Z,97.73
2017-12-14T00:32:37.591Z,91.37
2017-12-14T00:35:06.158Z,97.77
2017-12-14T00:37:34.863Z,95.23
2017-12-14T00:40:03.536Z,96.40
2017-12-14T00:42:32.235Z,84.57
2017-12-14T00:45:00.856Z,74.90
2017-12-14T00:47:30.418Z,88.07
2017-12-14T00:49:59.156Z,89.43
2017-12-14T00:52:28.638Z,91.37
2017-12-14T00:54:57.662Z,98.57
2017-12-14T00:57:26.391Z,111.60
2017-12-14T00:59:55.047Z,115.17
2017-12-14T01:02:24.034Z,116.47
2017-12-14T01:04:52.758Z,142.87
2017-12-14T01:07:21.442Z,133.47
2017-12-14T01:09:50.335Z,131.13
2017-12-14T01:12:19.081Z,104.50
2017-12-14T01:14:47.707Z,116.93
2017-12-14T01:17:16.641Z,114.70
2017-12-14T01:19:46.100Z,123.70
2017-12-14T01:22:14.752Z,131.60
2017-12-14T01:24:43.472Z,141.63
2017-12-14T01:27:12.113Z,135.17
2017-12-14T01:29:40.844Z,130.07
2017-12-14T01:32:09.637Z,142.60
2017-12-14T01:34:38.325Z,133.33
2017-12-14T01:37:07.000Z,133.00
2017-12-14T01:39:35.894Z,140.40
2017-12-14T01:42:04.546Z,126.73
2017-12-14T01:44:33.109Z,146.67
2017-12-14T01:47:02.830Z,141.13
2017-12-14T01:49:31.558Z,145.97
2017-12-14T01:52:00.216Z,157.10
2017-12-14T01:54:28.981Z,152.97
2017-12-14T01:57:00.788Z,157.30
2017-12-14T01:59:29.582Z,167.60
2017-12-14T02:01:58.268Z,143.30
2017-12-14T02:04:26.905Z,144.87
2017-12-14T02:06:56.352Z,145.13
2017-12-14T02:09:24.992Z,129.50
2017-12-14T02:11:53.724Z,125.73
2017-12-14T02:14:22.412Z,118.37
2017-12-14T02:16:51.096Z,119.50
2017-12-14T02:19:19.891Z,129.03
2017-12-14T02:21:48.974Z,121.07
2017-12-14T02:24:17.769Z,113.53
2017-12-14T02:26:46.454Z,117.87
2017-12-14T02:29:15.349Z,123.57
2017-12-14T02:31:44.002Z,137.53
2017-12-14T02:34:12.721Z,119.57
2017-12-14T02:36:41.604Z,129.13
2017-12-14T02:39:10.205Z,131.30
2017-12-14T02:41:38.893Z,120.67
2017-12-14T02:44:07.673Z,121.43
2017-12-14T02:46:36.304Z,123.10
2017-12-14T02:49:05.757Z,113.57
2017-12-14T02:51:34.638Z,118.37
2017-12-14T02:54:03.336Z,116.93
2017-12-14T02:56:31.983Z,108.20
2017-12-14T02:59:01.015Z,112.33
2017-12-14T03:01:29.661Z,112.10
2017-12-14T03:03:58.329Z,125.83
2017-12-14T03:06:27.787Z,115.40
2017-12-14T03:08:56.571Z,111.70
2017-12-14T03:11:25.308Z,112.67
2017-12-14T03:13:54.829Z,115.70
2017-12-14T03:16:23.548Z,101.30
2017-12-14T03:18:52.236Z,89.03
2017-12-14T03:21:20.919Z,64.17
2017-12-14T03:23:49.608Z,67.27
2017-12-14T03:26:18.293Z,63.30
2017-12-14T03:28:46.981Z,57.20
2017-12-14T03:31:15.674Z,58.17
2017-12-14T03:33:44.320Z,63.30
2017-12-14T03:36:13.288Z,53.43
2017-12-14T03:38:42.755Z,49.50
2017-12-14T03:41:11.370Z,41.00
2017-12-14T03:43:41.246Z,46.10
2017-12-14T03:46:09.885Z,48.80
2017-12-14T03:48:38.578Z,48.27
2017-12-14T03:51:07.609Z,47.70
2017-12-14T03:53:36.405Z,48.87
2017-12-14T03:56:04.984Z,53.83
2017-12-14T03:58:33.870Z,58.07
2017-12-14T04:01:02.562Z,57.33
2017-12-14T04:03:31.248Z,64.57
2017-12-14T04:06:00.202Z,95.27
2017-12-14T04:08:28.870Z,77.97
2017-12-14T04:10:58.335Z,79.30
2017-12-14T04:13:27.435Z,84.87
2017-12-14T04:15:56.104Z,81.80
2017-12-14T04:18:24.893Z,80.37
2017-12-14T04:20:53.634Z,73.03
2017-12-14T04:23:23.127Z,74.67
2017-12-14T04:25:52.591Z,91.37
2017-12-14T04:28:21.532Z,124.00
2017-12-14T04:30:50.380Z,119.70
2017-12-14T04:33:19.123Z,139.37
2017-12-14T04:35:47.949Z,144.60
2017-12-14T04:38:16.637Z,136.47
2017-12-14T04:40:45.323Z,141.50
2017-12-14T04:43:14.168Z,159.43
2017-12-14T04:45:43.666Z,185.67
2017-12-14T04:48:13.179Z,187.93
2017-12-14T04:50:41.919Z,163.77
2017-12-14T04:53:10.612Z,152.57
2017-12-14T04:55:39.281Z,129.63
2017-12-14T04:58:08.174Z,127.33
2017-12-14T05:00:36.959Z,141.07
2017-12-14T05:03:05.753Z,118.00
2017-12-14T05:05:34.844Z,125.10
2017-12-14T05:08:03.597Z,86.63
2017-12-14T05:10:32.314Z,63.37
2017-12-14T05:13:01.157Z,58.67
2017-12-14T05:15:30.624Z,55.17
2017-12-14T05:17:59.392Z,49.57
2017-12-14T05:20:28.290Z,50.53
2017-12-14T05:22:57.074Z,55.50
2017-12-14T05:25:25.820Z,59.27
2017-12-14T05:27:55.538Z,69.47
2017-12-14T05:30:24.303Z,61.97
2017-12-14T05:32:53.824Z,58.67
2017-12-14T05:35:22.516Z,67.43
2017-12-14T05:37:51.240Z,78.07
2017-12-14T05:40:19.974Z,85.40
2017-12-14T05:42:49.533Z,101.87
2017-12-14T05:45:18.328Z,114.43
2017-12-14T05:47:47.081Z,122.93
2017-12-14T05:50:15.800Z,140.80
2017-12-14T05:52:44.584Z,139.33
2017-12-14T05:55:13.379Z,149.67
2017-12-14T05:57:42.479Z,135.43
2017-12-14T06:00:11.255Z,131.00
2017-12-14T06:02:39.985Z,144.10
2017-12-14T06:05:09.508Z,154.33
2017-12-14T06:07:38.249Z,131.90
2017-12-14T06:10:07.765Z,135.00
2017-12-14T06:12:36.811Z,138.27
2017-12-14T06:15:05.493Z,158.30
2017-12-14T06:17:34.177Z,222.57
2017-12-14T06:20:04.961Z,222.07
2017-12-14T06:22:34.476Z,245.10
2017-12-14T06:25:03.308Z,346.53
2017-12-14T06:27:32.364Z,390.60
2017-12-14T06:30:01.083Z,425.67
2017-12-14T06:32:29.878Z,364.90
2017-12-14T06:34:58.663Z,306.67
2017-12-14T06:37:27.449Z,304.07
2017-12-14T06:39:56.243Z,229.17
2017-12-14T06:42:24.929Z,196.73
2017-12-14T06:44:53.715Z,180.23
2017-12-14T06:47:22.500Z,156.43
2017-12-14T06:49:51.492Z,118.13
2017-12-14T06:52:20.192Z,101.13
2017-12-14T06:54:49.074Z,99.23
2017-12-14T06:57:18.275Z,90.67
2017-12-14T06:59:47.058Z,88.63
2017-12-14T07:02:15.789Z,79.60
2017-12-14T07:04:45.631Z,86.77
2017-12-14T07:07:14.247Z,69.40
2017-12-14T07:09:42.868Z,83.97
2017-12-14T07:12:12.685Z,65.60
2017-12-14T07:14:42.246Z,58.70
2017-12-14T07:17:11.031Z,54.40
2017-12-14T07:19:40.131Z,47.13
2017-12-14T07:22:09.015Z,83.57
2017-12-14T07:24:37.746Z,70.07
2017-12-14T07:27:07.220Z,91.07
2017-12-14T07:29:35.961Z,140.10
2017-12-14T07:32:04.789Z,138.13
2017-12-14T07:34:33.481Z,105.53
2017-12-14T07:37:02.162Z,125.20
2017-12-14T07:39:30.842Z,130.43
2017-12-14T07:41:59.700Z,133.23
2017-12-14T07:44:29.238Z,90.27
2017-12-14T07:47:15.537Z,73.97
2017-12-14T07:49:44.225Z,75.57
2017-12-14T07:52:13.016Z,51.53
2017-12-14T07:54:42.089Z,52.30
2017-12-14T07:57:10.831Z,61.53
2017-12-14T07:59:40.303Z,84.27
2017-12-14T08:02:09.016Z,74.73
2017-12-14T08:04:37.759Z,72.70
2017-12-14T08:07:06.360Z,68.13
2017-12-14T08:09:35.550Z,73.67
2017-12-14T08:12:04.372Z,69.87
2017-12-14T08:14:33.158Z,81.60
2017-12-14T08:17:02.223Z,118.17
2017-12-14T08:19:30.940Z,103.30
2017-12-14T08:21:59.657Z,122.43
2017-12-14T08:24:28.893Z,110.53
2017-12-14T08:26:57.618Z,112.53
2017-12-14T08:29:26.361Z,102.77
2017-12-14T08:31:55.407Z,95.20
2017-12-14T08:34:24.800Z,108.13
2017-12-14T08:36:54.376Z,104.70
2017-12-14T08:39:23.113Z,112.07
2017-12-14T08:41:51.955Z,105.87
2017-12-14T08:44:20.754Z,116.90
2017-12-14T08:46:49.941Z,114.67
2017-12-14T08:49:18.617Z,99.70
2017-12-14T08:51:47.402Z,99.53
2017-12-14T08:54:16.503Z,90.43
2017-12-14T08:56:45.299Z,91.10
2017-12-14T08:59:13.979Z,100.17
2017-12-14T09:01:42.977Z,118.37
2017-12-14T09:04:11.763Z,102.23
2017-12-14T09:06:40.547Z,112.40
2017-12-14T09:09:09.378Z,102.37
2017-12-14T09:11:38.950Z,93.80
2017-12-14T09:14:08.511Z,74.00
2017-12-14T09:16:38.007Z,91.63
2017-12-14T09:19:07.501Z,67.80
2017-12-14T09:21:37.301Z,64.60
2017-12-14T09:24:05.973Z,68.80
2017-12-14T09:26:34.677Z,69.03
2017-12-14T09:29:03.519Z,79.00
2017-12-14T09:31:32.323Z,57.13
2017-12-14T09:34:01.055Z,64.87
2017-12-14T09:36:30.802Z,66.07
2017-12-14T09:38:59.544Z,65.03
2017-12-14T09:41:29.012Z,51.30
2017-12-14T09:43:57.703Z,64.47
2017-12-14T09:46:27.244Z,67.30
2017-12-14T09:48:56.708Z,62.27
2017-12-14T09:51:25.411Z,60.10
2017-12-14T09:53:54.103Z,67.70
2017-12-14T09:56:22.940Z,67.10
2017-12-14T09:58:51.814Z,73.37
2017-12-14T10:01:20.514Z,65.20
2017-12-14T10:03:49.247Z,71.47
2017-12-14T10:06:18.865Z,71.57
2017-12-14T10:08:48.265Z,62.80
2017-12-14T10:11:17.636Z,67.27
2017-12-14T10:13:46.672Z,66.47
2017-12-14T10:16:15.290Z,66.47
2017-12-14T10:18:44.076Z,62.50
2017-12-14T10:21:12.871Z,56.70
2017-12-14T10:23:41.656Z,64.83
2017-12-14T10:26:10.340Z,61.17
2017-12-14T10:28:39.382Z,56.97
2017-12-14T10:31:08.943Z,84.87
2017-12-14T10:33:37.730Z,86.97
2017-12-14T10:36:06.503Z,87.77
2017-12-14T10:38:35.276Z,91.57
2017-12-14T10:41:04.070Z,91.13
2017-12-14T10:43:33.064Z,107.83
2017-12-14T10:46:01.782Z,103.93
2017-12-14T10:48:30.434Z,111.23
2017-12-14T10:50:59.323Z,102.57
2017-12-14T10:53:28.117Z,106.83
2017-12-14T10:55:56.804Z,98.57
2017-12-14T10:58:25.972Z,103.07
2017-12-14T11:01:00.112Z,100.33
2017-12-14T11:03:28.897Z,93.37
2017-12-14T11:05:57.582Z,89.33
2017-12-14T11:08:26.376Z,93.57
2017-12-14T11:10:55.412Z,85.23
2017-12-14T11:13:24.888Z,80.20
2017-12-14T11:15:55.199Z,76.13
2017-12-14T11:18:23.942Z,80.20
2017-12-14T11:20:52.768Z,85.40
2017-12-14T11:23:21.726Z,79.57
2017-12-14T11:25:50.556Z,80.47
2017-12-14T11:28:19.288Z,74.30
2017-12-14T11:30:48.777Z,55.80
2017-12-14T11:33:17.424Z,56.93
2017-12-14T11:35:46.222Z,57.67
2017-12-14T11:38:15.360Z,54.07
2017-12-14T11:40:44.921Z,50.33
2017-12-14T11:43:13.621Z,51.87
2017-12-14T11:45:43.590Z,55.80
2017-12-14T11:48:12.259Z,51.47
2017-12-14T11:50:40.992Z,59.87
2017-12-14T11:53:09.889Z,53.30
2017-12-14T11:55:38.573Z,55.47
2017-12-14T11:58:07.258Z,55.47
2017-12-14T12:00:36.146Z,54.90
2017-12-14T12:03:04.937Z,52.53
2017-12-14T12:05:33.721Z,52.73
2017-12-14T12:08:02.422Z,58.73
2017-12-14T12:10:31.203Z,53.73
2017-12-14T12:12:59.988Z,50.60
2017-12-14T12:15:28.772Z,54.93
2017-12-14T12:17:57.495Z,50.83
2017-12-14T12:20:27.019Z,53.07
2017-12-14T12:22:55.806Z,49.63
2017-12-14T12:25:25.260Z,47.07
2017-12-14T12:27:53.996Z,47.37
2017-12-14T12:30:23.814Z,45.57
2017-12-14T12:32:52.644Z,48.43
2017-12-14T12:35:21.348Z,49.70
2017-12-14T12:37:50.226Z,41.67
2017-12-14T12:40:18.961Z,47.03
2017-12-14T12:42:48.429Z,39.07
2017-12-14T12:45:17.511Z,38.17
2017-12-14T12:47:46.198Z,47.17
2017-12-14T12:50:14.934Z,41.03
2017-12-14T12:52:44.589Z,41.73
2017-12-14T12:55:13.383Z,42.97
2017-12-14T12:57:42.169Z,38.73
2017-12-14T13:00:11.831Z,36.17
2017-12-14T13:02:40.560Z,41.43
2017-12-14T13:05:09.355Z,41.17
2017-12-14T13:07:38.546Z,35.87
2017-12-14T13:10:07.342Z,34.77
2017-12-14T13:12:36.071Z,34.33
2017-12-14T13:15:05.525Z,34.20
2017-12-14T13:17:34.211Z,35.63
2017-12-14T13:20:02.904Z,34.77
2017-12-14T13:22:31.691Z,35.93
2017-12-14T13:25:00.477Z,34.57
2017-12-14T13:27:29.369Z,38.37
2017-12-14T13:29:58.254Z,36.97
2017-12-14T13:32:27.049Z,41.63
2017-12-14T13:34:55.785Z,33.67
2017-12-14T13:37:25.540Z,34.47
2017-12-14T13:39:54.335Z,33.43
2017-12-14T13:42:23.012Z,42.50
2017-12-14T13:44:51.834Z,63.33
2017-12-14T13:47:21.415Z,48.23
2017-12-14T13:49:50.144Z,35.23
2017-12-14T13:52:19.835Z,37.17
2017-12-14T13:54:48.551Z,30.87
2017-12-14T13:57:18.024Z,36.30
2017-12-14T13:59:46.788Z,34.17
2017-12-14T14:02:15.573Z,35.33
2017-12-14T14:04:44.364Z,34.13
2017-12-14T14:07:13.872Z,34.77
2017-12-14T14:09:44.089Z,54.10
2017-12-14T14:12:12.847Z,52.47
2017-12-14T14:14:41.548Z,55.70
2017-12-14T14:17:10.323Z,51.47
2017-12-14T14:19:39.014Z,34.60
2017-12-14T14:22:07.950Z,47.93
2017-12-14T14:24:37.422Z,38.50
2017-12-14T14:27:06.116Z,39.70
2017-12-14T14:29:34.783Z,49.67
2017-12-14T14:32:03.562Z,69.60
2017-12-14T14:34:32.248Z,65.50
2017-12-14T14:37:00.935Z,66.43
2017-12-14T14:39:30.380Z,74.47
2017-12-14T14:41:59.799Z,76.87
2017-12-14T14:44:28.792Z,77.87
2017-12-14T14:46:57.484Z,104.13
2017-12-14T14:49:26.128Z,215.27
2017-12-14T14:51:55.146Z,160.77
2017-12-14T14:54:24.613Z,135.63
2017-12-14T14:56:53.178Z,117.07
2017-12-14T14:59:22.179Z,133.03
2017-12-14T15:01:50.765Z,189.20
2017-12-14T15:04:19.460Z,204.57
2017-12-14T15:06:48.153Z,192.83
2017-12-14T15:09:16.822Z,338.10
2017-12-14T15:11:45.489Z,388.13
2017-12-14T15:14:14.353Z,546.80
2017-12-14T15:16:43.818Z,592.93
2017-12-14T15:19:12.518Z,518.60
2017-12-14T15:21:41.288Z,457.60
2017-12-14T15:24:09.974Z,390.40
2017-12-14T15:26:38.621Z,329.77
2017-12-14T15:29:07.457Z,297.70
2017-12-14T15:31:36.035Z,297.20
2017-12-14T15:34:04.718Z,302.53
2017-12-14T15:36:33.512Z,342.63
2017-12-14T15:39:02.093Z,476.33
2017-12-14T15:41:30.885Z,451.33
2017-12-14T15:43:59.877Z,459.80
2017-12-14T15:46:28.663Z,440.53
2017-12-14T15:48:57.307Z,431.40
2017-12-14T15:51:26.341Z,500.97
2017-12-14T15:53:54.922Z,379.27
2017-12-14T15:56:23.613Z,328.60
2017-12-14T15:58:53.320Z,299.47
2017-12-14T16:01:21.918Z,296.70
2017-12-14T16:03:50.692Z,265.57
2017-12-14T16:06:19.435Z,302.43
2017-12-14T16:08:48.909Z,312.93
2017-12-14T16:11:17.570Z,332.90
2017-12-14T16:13:46.741Z,323.17
2017-12-14T16:16:15.406Z,344.07
2017-12-14T16:18:44.170Z,324.53
2017-12-14T16:21:13.764Z,284.10
2017-12-14T16:23:43.229Z,214.30
2017-12-14T16:26:11.902Z,299.33
2017-12-14T16:28:41.729Z,260.63
2017-12-14T16:31:10.416Z,218.30
2017-12-14T16:33:39.003Z,201.40
2017-12-14T16:36:07.984Z,202.40
2017-12-14T16:38:36.579Z,381.17
2017-12-14T16:41:05.260Z,487.57
2017-12-14T16:43:34.043Z,427.47
2017-12-14T16:46:02.728Z,382.00
2017-12-14T16:48:31.462Z,292.07
2017-12-14T16:51:01.230Z,243.47
2017-12-14T16:53:29.874Z,233.13
2017-12-14T16:55:58.602Z,300.03
2017-12-14T16:58:28.452Z,418.47
2017-12-14T17:00:57.248Z,646.50
2017-12-14T17:03:25.819Z,374.37
2017-12-14T17:05:54.537Z,312.27
2017-12-14T17:08:23.306Z,311.13
2017-12-14T17:10:52.092Z,416.70
2017-12-14T17:13:21.084Z,418.73
2017-12-14T17:15:49.737Z,380.50
2017-12-14T17:18:18.455Z,431.03
2017-12-14T17:20:47.450Z,494.73
2017-12-14T17:23:16.134Z,491.83
2017-12-14T17:25:44.883Z,480.73
2017-12-14T17:28:13.605Z,451.27
2017-12-14T17:30:42.245Z,447.50
2017-12-14T17:33:10.888Z,445.13
2017-12-14T17:35:39.662Z,457.13
2017-12-14T17:38:08.298Z,453.77
2017-12-14T17:40:37.757Z,596.87
2017-12-14T17:43:06.608Z,627.10
2017-12-14T17:45:35.252Z,629.07
2017-12-14T17:48:03.970Z,501.93
2017-12-14T17:50:32.601Z,290.07
2017-12-14T17:53:01.256Z,472.83
2017-12-14T17:55:29.873Z,342.40
2017-12-14T17:57:58.657Z,302.07
2017-12-14T18:00:27.309Z,265.33
2017-12-14T18:02:56.029Z,226.47
2017-12-14T18:05:24.947Z,208.37
2017-12-14T18:07:53.614Z,200.77
2017-12-14T18:10:22.381Z,378.13
2017-12-14T18:12:51.204Z,262.57
2017-12-14T18:15:19.913Z,235.73
2017-12-14T18:17:49.475Z,250.67
2017-12-14T18:20:18.270Z,209.97
2017-12-14T18:22:46.916Z,227.93
2017-12-14T18:25:16.452Z,225.97
2017-12-14T18:27:46.150Z,260.90
2017-12-14T18:30:14.743Z,388.73
2017-12-14T18:32:43.489Z,340.30
2017-12-14T18:35:13.129Z,364.73
2017-12-14T18:37:41.832Z,282.20
2017-12-14T18:40:10.617Z,237.60
2017-12-14T18:42:39.563Z,148.47
2017-12-14T18:45:09.008Z,137.70
2017-12-14T18:47:37.661Z,170.73
2017-12-14T18:50:06.439Z,145.93
2017-12-14T18:52:35.989Z,104.20
2017-12-14T18:55:05.389Z,87.53
2017-12-14T18:57:34.281Z,107.83
2017-12-14T19:00:03.010Z,83.27
2017-12-14T19:02:32.506Z,78.37
2017-12-14T19:05:03.105Z,64.33
2017-12-14T19:07:31.813Z,69.63
2017-12-14T19:10:00.453Z,58.00
2017-12-14T19:12:29.629Z,63.00
2017-12-14T19:14:59.116Z,60.77
2017-12-14T19:17:28.793Z,81.50
2017-12-14T19:19:57.984Z,188.17
2017-12-14T19:22:26.879Z,203.07
2017-12-14T19:24:55.565Z,340.93
2017-12-14T19:27:24.864Z,323.67
2017-12-14T19:29:53.649Z,331.20
2017-12-14T19:32:22.333Z,292.07
2017-12-14T19:34:51.229Z,431.60
2017-12-14T19:37:19.956Z,426.83
2017-12-14T19:39:49.425Z,343.63
2017-12-14T19:42:18.209Z,325.50
2017-12-14T19:44:47.782Z,347.60
2017-12-14T19:47:16.570Z,426.93
2017-12-14T19:49:45.392Z,308.30
2017-12-14T19:52:14.889Z,228.73
2017-12-14T19:54:43.855Z,205.20
2017-12-14T19:57:12.696Z,169.17
2017-12-14T19:59:42.154Z,385.00
2017-12-14T20:02:10.859Z,247.73
2017-12-14T20:04:40.445Z,318.87
2017-12-14T20:07:09.145Z,271.60
2017-12-14T20:09:37.863Z,331.03
2017-12-14T20:12:07.680Z,259.27
2017-12-14T20:14:37.170Z,291.60
2017-12-14T20:17:06.733Z,208.13
2017-12-14T20:19:35.628Z,150.23
2017-12-14T20:22:04.412Z,135.47
2017-12-14T20:24:32.989Z,116.83
2017-12-14T20:27:02.081Z,160.77
2017-12-14T20:29:30.777Z,199.80
2017-12-14T20:31:59.518Z,328.37
2017-12-14T20:34:29.380Z,428.60
2017-12-14T20:36:58.276Z,298.40
2017-12-14T20:39:26.958Z,433.13
2017-12-14T20:41:55.742Z,299.30
2017-12-14T20:44:24.433Z,263.37
2017-12-14T20:46:53.114Z,264.87
2017-12-14T20:49:22.107Z,234.40
2017-12-14T20:51:50.792Z,325.27
2017-12-14T20:54:19.587Z,345.27
2017-12-14T20:56:48.373Z,174.33
2017-12-14T20:59:17.061Z,175.60
2017-12-14T21:01:45.844Z,147.20
2017-12-14T21:04:14.946Z,144.60
2017-12-14T21:06:43.620Z,136.10
2017-12-14T21:09:12.312Z,86.90
2017-12-14T21:11:41.200Z,80.73
2017-12-14T21:14:09.886Z,48.20
2017-12-14T21:16:38.542Z,46.27
2017-12-14T21:19:07.510Z,57.47
2017-12-14T21:21:36.864Z,49.20
2017-12-14T21:24:05.570Z,71.63
2017-12-14T21:26:34.261Z,57.83
2017-12-14T21:29:02.928Z,70.57
2017-12-14T21:31:31.608Z,65.47
2017-12-14T21:34:00.663Z,121.03
2017-12-14T21:36:30.209Z,111.43
2017-12-14T21:38:58.924Z,97.23
2017-12-14T21:41:28.770Z,130.97
2017-12-14T21:43:57.438Z,134.17
2017-12-14T21:46:26.905Z,94.03
2017-12-14T21:48:55.690Z,89.17
2017-12-14T21:51:24.260Z,90.47
2017-12-14T21:53:52.238Z,116.70
2017-12-14T21:56:21.176Z,95.13
2017-12-14T21:58:50.648Z,109.27
2017-12-14T22:01:19.428Z,120.47
2017-12-14T22:03:48.210Z,124.07
2017-12-14T22:06:17.006Z,129.27
2017-12-14T22:08:45.889Z,116.57
2017-12-14T22:11:14.685Z,269.43
2017-12-14T22:13:43.370Z,372.23
2017-12-14T22:16:11.941Z,298.43
2017-12-14T22:18:40.730Z,260.27
2017-12-14T22:21:09.529Z,239.40
2017-12-14T22:23:38.271Z,158.70
2017-12-14T22:26:07.164Z,174.23
2017-12-14T22:28:35.832Z,179.87
2017-12-14T22:31:05.400Z,160.50
2017-12-14T22:33:34.493Z,153.77
2017-12-14T22:36:03.277Z,153.87
2017-12-14T22:38:32.073Z,122.17
2017-12-14T22:41:01.018Z,105.47
2017-12-14T22:43:30.357Z,102.17
2017-12-14T22:45:59.151Z,108.57
2017-12-14T22:48:28.201Z,89.70
2017-12-14T22:50:56.973Z,99.97
2017-12-14T22:53:26.436Z,104.87
2017-12-14T22:55:55.403Z,109.73
2017-12-14T22:58:24.116Z,111.80
2017-12-14T23:00:52.764Z,110.30
2017-12-14T23:03:21.507Z,123.60
2017-12-14T23:05:50.225Z,126.47
2017-12-14T23:08:18.918Z,171.87
2017-12-14T23:10:47.644Z,147.67
2017-12-14T23:13:16.303Z,187.63
2017-12-14T23:15:45.015Z,152.93
2017-12-14T23:18:13.738Z,144.13
2017-12-14T23:20:42.499Z,138.97
2017-12-14T23:23:11.072Z,106.70
2017-12-14T23:25:39.903Z,102.00
2017-12-14T23:28:09.366Z,132.13
2017-12-14T23:30:38.028Z,124.93
2017-12-14T23:33:06.743Z,117.50
2017-12-14T23:35:35.430Z,118.77
2017-12-14T23:38:04.153Z,111.73
2017-12-14T23:40:33.746Z,107.30
2017-12-14T23:43:02.439Z,88.67
2017-12-14T23:45:31.198Z,85.70
2017-12-14T23:47:59.983Z,76.60
2017-12-14T23:50:28.667Z,78.43
2017-12-14T23:52:57.356Z,81.43
2017-12-14T23:55:26.446Z,75.03
2017-12-14T23:57:55.245Z,69.50
